Time;durP1;ratioP1;P1;durP2;ratioP2;P2;SDS_P1;SDS_P2;PMS_P1;PMS_P2;Temp;Humidity;BMP_temperature;BMP_pressure;BME280_temperature;BME280_humidity;BME280_pressure;Samples;Min_cycle;Max_cycle;Signal;HPM_P1;HPM_P2
2021/05/09 00:00:16;;;;;;;5.15;4.63;;;;;;;13.98;26.98;100663.63;4999466;28;97244;-73
2021/05/09 00:02:43;;;;;;;5.63;5.15;;;;;;;13.95;26.94;100655.56;4984226;28;97885;-74
2021/05/09 00:05:12;;;;;;;5.40;4.95;;;;;;;13.97;26.93;100659.16;5000039;28;97645;-72
2021/05/09 00:07:39;;;;;;;5.47;4.97;;;;;;;13.96;26.99;100657.38;5001075;28;97344;-72
2021/05/09 00:10:09;;;;;;;5.15;4.75;;;;;;;13.93;27.00;100654.66;5001098;28;97553;-73
2021/05/09 00:12:37;;;;;;;8.60;5.57;;;;;;;13.91;26.98;100650.22;4991515;28;97036;-74
2021/05/09 00:15:05;;;;;;;5.78;5.28;;;;;;;13.87;26.98;100651.97;4997810;28;101565;-74
2021/05/09 00:17:37;;;;;;;5.97;5.47;;;;;;;13.82;27.08;100648.34;4999303;28;97309;-73
2021/05/09 00:20:06;;;;;;;5.88;5.47;;;;;;;13.79;27.09;100647.44;5000394;28;97439;-72
2021/05/09 00:22:33;;;;;;;5.82;5.32;;;;;;;13.78;27.05;100642.97;4998574;28;96938;-73
2021/05/09 00:25:01;;;;;;;6.28;5.68;;;;;;;13.70;27.21;100650.03;4998480;28;101267;-73
2021/05/09 00:27:28;;;;;;;5.63;5.13;;;;;;;13.66;27.22;100653.59;5000170;28;97636;-74
2021/05/09 00:29:55;;;;;;;6.55;5.85;;;;;;;13.64;27.36;100639.31;4999232;28;96967;-74
2021/05/09 00:32:23;;;;;;;7.03;6.43;;;;;;;13.65;27.30;100642.00;4998032;28;97969;-73
2021/05/09 00:34:52;;;;;;;5.68;5.18;;;;;;;13.57;27.44;100635.69;4995443;28;97997;-74
2021/05/09 00:37:19;;;;;;;8.02;6.03;;;;;;;13.51;27.55;100633.00;4999952;28;97485;-72
2021/05/09 00:39:46;;;;;;;6.13;5.45;;;;;;;13.46;27.50;100629.38;4999671;28;97704;-73
2021/05/09 00:42:14;;;;;;;6.40;5.80;;;;;;;13.44;27.56;100636.47;4998398;28;98191;-74
2021/05/09 00:44:41;;;;;;;8.00;6.22;;;;;;;13.43;27.65;100628.47;4998423;28;97768;-72
2021/05/09 00:47:10;;;;;;;6.65;5.60;;;;;;;13.41;27.66;100631.13;4997436;28;97237;-73
2021/05/09 00:49:39;;;;;;;6.72;5.68;;;;;;;13.39;27.62;100632.91;4997589;28;97637;-73
2021/05/09 00:52:08;;;;;;;6.28;5.68;;;;;;;13.36;27.78;100631.97;4998121;28;98151;-75
2021/05/09 00:54:37;;;;;;;6.35;5.75;;;;;;;13.35;27.74;100631.06;4998303;28;96998;-74
2021/05/09 00:57:05;;;;;;;5.72;5.25;;;;;;;13.31;27.75;100629.28;4996791;28;97245;-73
2021/05/09 00:59:34;;;;;;;7.07;6.38;;;;;;;13.33;27.80;100631.97;4997467;28;97912;-73
2021/05/09 01:02:02;;;;;;;6.68;6.13;;;;;;;13.33;27.82;100634.66;4998660;28;97739;-74
2021/05/09 01:04:30;;;;;;;7.03;6.38;;;;;;;13.29;27.82;100625.72;4999391;28;97654;-73
2021/05/09 01:06:58;;;;;;;6.28;5.68;;;;;;;13.25;27.93;100625.66;4996768;28;97361;-73
2021/05/09 01:09:26;;;;;;;7.00;6.30;;;;;;;13.25;27.85;100628.31;4998835;28;97966;-73
2021/05/09 01:11:54;;;;;;;7.80;6.50;;;;;;;13.23;27.92;100620.31;4997489;28;98902;-74
2021/05/09 01:14:22;;;;;;;7.30;6.28;;;;;;;13.21;27.94;100623.84;4997310;28;101171;-73
2021/05/09 01:16:49;;;;;;;6.78;6.18;;;;;;;13.17;27.97;100625.59;4996216;28;96877;-74
2021/05/09 01:19:18;;;;;;;6.90;6.20;;;;;;;13.14;28.10;100620.22;4997318;28;97206;-73
2021/05/09 01:21:47;;;;;;;7.07;6.43;;;;;;;13.13;28.22;100618.44;4980882;28;101224;-72
2021/05/09 01:24:14;;;;;;;6.88;6.32;;;;;;;13.08;28.21;100614.84;4996561;28;97908;-71
2021/05/09 01:26:42;;;;;;;6.93;6.32;;;;;;;13.06;28.26;100616.59;4998017;28;97360;-72
2021/05/09 01:29:09;;;;;;;8.10;6.35;;;;;;;13.05;28.30;100618.41;4999533;28;97739;-72
2021/05/09 01:31:37;;;;;;;7.40;6.70;;;;;;;13.04;28.28;100618.34;4997892;28;97853;-73
2021/05/09 01:34:05;;;;;;;6.60;5.95;;;;;;;13.01;28.38;100613.00;4996655;28;97075;-73
2021/05/09 01:36:32;;;;;;;7.03;6.25;;;;;;;13.02;28.33;100609.47;4997010;28;97216;-72
2021/05/09 01:39:00;;;;;;;7.82;6.30;;;;;;;12.99;28.34;100602.31;5000011;28;97302;-71
2021/05/09 01:41:28;;;;;;;7.15;6.50;;;;;;;13.00;28.36;100605.88;4995139;28;99145;-72
2021/05/09 01:43:56;;;;;;;6.97;6.38;;;;;;;12.99;28.46;100601.38;4986726;28;99751;-73
2021/05/09 01:46:23;;;;;;;8.90;6.35;;;;;;;12.97;28.47;100605.78;4996266;28;97317;-73
2021/05/09 01:48:50;;;;;;;9.75;6.40;;;;;;;;;;4996774;28;97273;-73
2021/05/09 01:51:19;;;;;;;7.55;6.00;;;;;;;12.90;28.53;100603.97;4996482;28;98677;-74
2021/05/09 01:53:47;;;;;;;7.20;6.30;;;;;;;12.88;28.49;100595.03;4996205;28;98900;-73
2021/05/09 01:56:16;;;;;;;7.15;6.35;;;;;;;12.90;28.44;100599.53;4996826;28;98025;-73
2021/05/09 01:58:44;;;;;;;7.28;6.68;;;;;;;12.89;28.57;100603.06;4996357;28;97989;-74
2021/05/09 02:01:16;;;;;;;7.47;6.75;;;;;;;12.82;28.64;100605.69;4992204;28;98164;-72
2021/05/09 02:03:54;;;;;;;6.88;6.28;;;;;;;12.79;28.55;100601.19;4994621;28;98008;-72
2021/05/09 02:06:24;;;;;;;9.32;6.70;;;;;;;12.79;28.59;100610.97;4994473;28;97795;-73
2021/05/09 02:08:52;;;;;;;6.70;6.10;;;;;;;12.76;28.64;100603.84;4997981;28;96773;-74
2021/05/09 02:11:29;;;;;;;6.63;5.95;;;;;;;12.75;28.53;100603.81;4998167;28;101730;-73
2021/05/09 02:14:30;;;;;;;7.40;6.70;;;;;;;12.74;29.02;100602.03;4995170;28;98221;-74
2021/05/09 02:17:27;;;;;;;6.10;5.50;;;;;;;12.74;28.96;100602.03;4994967;28;97432;-73
2021/05/09 02:20:07;;;;;;;6.82;6.22;;;;;;;12.70;28.79;100602.88;4996573;28;97868;-73
2021/05/09 02:22:36;;;;;;;7.05;6.55;;;;;;;12.69;28.65;100593.09;4996629;28;98961;-73
2021/05/09 02:25:06;;;;;;;8.27;6.93;;;;;;;12.67;28.64;100589.50;4978229;28;100265;-74
2021/05/09 02:27:35;;;;;;;7.25;6.57;;;;;;;12.65;28.87;100596.59;4997125;28;97937;-73
2021/05/09 02:30:05;;;;;;;7.97;6.28;;;;;;;12.66;28.71;100595.72;4997346;28;97293;-73
2021/05/09 02:32:33;;;;;;;7.07;6.00;;;;;;;12.63;28.90;100599.28;4994419;28;97223;-72
2021/05/09 02:35:00;;;;;;;6.90;6.22;;;;;;;12.63;28.98;100599.28;4995673;28;97840;-71
2021/05/09 02:37:28;;;;;;;6.78;6.18;;;;;;;12.61;28.77;100589.44;4996276;28;97344;-72
2021/05/09 02:39:55;;;;;;;7.03;6.25;;;;;;;12.57;28.73;100591.19;4997446;28;96966;-72
2021/05/09 02:42:23;;;;;;;7.85;6.82;;;;;;;12.51;28.88;100587.59;4995233;28;98192;-73
2021/05/09 02:44:52;;;;;;;6.75;6.15;;;;;;;12.43;28.97;100586.59;4996774;28;97789;-73
2021/05/09 02:47:29;;;;;;;7.07;6.47;;;;;;;12.39;29.16;100587.44;4997419;28;97921;-73
2021/05/09 02:50:07;;;;;;;6.95;6.32;;;;;;;12.31;29.22;100589.16;4997084;28;96825;-73
2021/05/09 02:52:36;;;;;;;7.75;6.35;;;;;;;12.29;29.08;100583.75;4996234;28;102180;-73
2021/05/09 02:55:05;;;;;;;7.18;6.47;;;;;;;12.26;29.22;100591.75;4997456;28;100157;-73
2021/05/09 02:57:32;;;;;;;6.93;6.30;;;;;;;12.26;29.13;100585.50;5007016;28;97553;-73
2021/05/09 03:00:03;;;;;;;7.15;6.45;;;;;;;12.25;29.38;100586.41;4998343;28;97672;-71
2021/05/09 03:02:33;;;;;;;6.90;6.20;;;;;;;12.19;29.37;100584.56;5004688;28;97864;-73
2021/05/09 03:05:04;;;;;;;6.68;6.07;;;;;;;12.17;29.43;100584.53;5011943;28;98192;-72
2021/05/09 03:07:32;;;;;;;6.72;5.78;;;;;;;12.16;29.48;100589.84;5011469;28;97149;-72
2021/05/09 03:10:00;;;;;;;6.70;6.10;;;;;;;12.13;29.35;100587.09;5005709;28;96758;-72
2021/05/09 03:12:32;;;;;;;7.32;6.63;;;;;;;12.11;29.60;100592.44;4998845;28;97197;-73
2021/05/09 03:15:05;;;;;;;6.82;6.22;;;;;;;12.10;29.50;100585.31;4998683;28;99407;-72
2021/05/09 03:17:33;;;;;;;7.60;6.93;;;;;;;12.09;29.38;100586.19;4994904;28;97312;-73
2021/05/09 03:20:00;;;;;;;7.35;6.72;;;;;;;12.08;29.41;100592.41;4999368;28;97601;-73
2021/05/09 03:22:28;;;;;;;7.45;6.75;;;;;;;12.08;29.51;100591.50;4997493;28;97820;-74
2021/05/09 03:24:57;;;;;;;7.45;6.75;;;;;;;12.07;29.44;100587.94;4995674;28;99103;-72
2021/05/09 03:27:24;;;;;;;7.40;6.68;;;;;;;12.05;29.52;100587.00;4999097;28;98519;-73
2021/05/09 03:29:51;;;;;;;7.45;6.65;;;;;;;12.06;29.66;100593.25;4998132;28;97349;-71
2021/05/09 03:32:19;;;;;;;7.68;6.07;;;;;;;12.04;29.72;100585.25;4999411;28;98789;-72
2021/05/09 03:34:47;;;;;;;8.38;5.75;;;;;;;12.01;29.72;100585.22;4996872;28;98459;-72
2021/05/09 03:37:14;;;;;;;7.22;6.53;;;;;;;12.02;29.73;100587.00;4998013;28;97366;-72
2021/05/09 03:39:42;;;;;;;9.20;8.27;;;;;;;12.03;29.65;100582.56;4997926;28;97416;-71
2021/05/09 03:42:10;;;;;;;6.53;5.97;;;;;;;12.00;29.64;100583.41;4998829;28;98090;-72
2021/05/09 03:44:38;;;;;;;6.55;5.88;;;;;;;12.04;29.59;100579.91;4989594;28;98075;-72
2021/05/09 03:47:05;;;;;;;6.93;6.20;;;;;;;12.07;29.64;100574.59;4995477;28;97722;-72
2021/05/09 03:49:33;;;;;;;6.30;5.78;;;;;;;12.08;29.55;100581.75;4997043;28;97315;-71
2021/05/09 03:52:01;;;;;;;9.07;7.32;;;;;;;12.09;29.51;100582.59;4994876;28;98018;-71
2021/05/09 03:54:28;;;;;;;6.85;6.30;;;;;;;12.11;29.43;100580.84;4994889;28;97498;-72
2021/05/09 03:56:55;;;;;;;7.28;5.80;;;;;;;12.10;29.59;100582.66;4995703;28;97811;-71
2021/05/09 03:59:22;;;;;;;7.72;6.40;;;;;;;12.10;29.70;100580.00;4997300;28;96838;-71
2021/05/09 04:01:50;;;;;;;6.68;6.13;;;;;;;12.09;29.63;100583.50;4990245;28;99352;-73
2021/05/09 04:04:17;;;;;;;7.38;6.55;;;;;;;12.06;29.66;100578.16;4994348;28;97295;-73
2021/05/09 04:06:46;;;;;;;8.60;6.22;;;;;;;12.10;29.53;100580.00;4995270;28;97223;-72
2021/05/09 04:09:13;;;;;;;6.43;5.85;;;;;;;12.10;29.66;100576.41;4993024;28;97963;-71
2021/05/09 04:11:41;;;;;;;7.40;5.80;;;;;;;12.11;29.70;100581.75;4998810;28;97837;-73
2021/05/09 04:14:08;;;;;;;5.72;5.30;;;;;;;12.13;29.72;100580.00;4997296;28;98100;-71
2021/05/09 04:16:36;;;;;;;6.70;6.10;;;;;;;12.18;29.60;100582.78;4997967;28;97594;-72
2021/05/09 04:19:03;;;;;;;6.35;5.72;;;;;;;12.21;29.46;100579.22;4999316;28;97406;-72
2021/05/09 04:21:31;;;;;;;5.85;5.43;;;;;;;12.23;29.72;100582.81;4999114;28;98210;-72
2021/05/09 04:23:59;;;;;;;6.47;5.93;;;;;;;12.25;29.72;100578.41;4999191;28;97980;-72
2021/05/09 04:26:26;;;;;;;6.20;5.70;;;;;;;12.26;29.60;100580.16;4997049;28;97770;-71
2021/05/09 04:28:53;;;;;;;6.25;5.68;;;;;;;12.31;29.56;100582.00;4999715;28;97008;-72
2021/05/09 04:31:21;;;;;;;7.00;6.30;;;;;;;12.36;29.46;100576.75;4998426;28;101717;-71
2021/05/09 04:33:48;;;;;;;6.70;6.10;;;;;;;12.38;29.67;100572.31;4997052;28;98807;-72
2021/05/09 04:36:15;;;;;;;5.97;5.43;;;;;;;12.41;29.42;100565.25;4998896;28;97497;-72
2021/05/09 04:38:43;;;;;;;5.93;5.45;;;;;;;12.45;29.63;100571.50;5000942;28;97910;-72
2021/05/09 04:41:12;;;;;;;5.63;5.13;;;;;;;12.47;29.56;100564.41;4999061;28;99322;-72
2021/05/09 04:43:39;;;;;;;6.13;5.63;;;;;;;12.50;29.54;100570.66;4995637;28;97968;-72
2021/05/09 04:46:07;;;;;;;6.30;5.63;;;;;;;12.50;29.57;100575.09;4999400;28;97890;-72
2021/05/09 04:48:34;;;;;;;5.75;5.30;;;;;;;12.51;29.39;100568.91;4998555;28;98126;-72
2021/05/09 04:51:02;;;;;;;5.38;4.90;;;;;;;12.54;29.47;100560.91;4998453;28;99349;-72
2021/05/09 04:53:31;;;;;;;5.90;5.38;;;;;;;12.58;29.37;100574.31;5000224;28;100877;-72
2021/05/09 04:55:59;;;;;;;6.22;5.72;;;;;;;12.62;29.34;100570.78;5000370;28;98144;-71
2021/05/09 04:58:29;;;;;;;6.68;6.07;;;;;;;12.66;29.41;100572.59;4998289;28;98098;-74
2021/05/09 05:00:59;;;;;;;5.55;5.15;;;;;;;12.69;29.46;100561.06;4997697;28;99516;-71
2021/05/09 05:03:26;;;;;;;6.53;5.93;;;;;;;12.70;29.50;100569.06;5000343;28;98425;-71
2021/05/09 05:05:54;;;;;;;49.25;26.98;;;;;;;12.71;29.44;100564.63;4998402;28;96954;-71
2021/05/09 05:08:21;;;;;;;9.35;7.75;;;;;;;12.71;29.47;100573.53;5000121;28;97725;-71
2021/05/09 05:10:49;;;;;;;5.97;5.40;;;;;;;12.68;29.54;100553.91;4996624;28;99270;-73
2021/05/09 05:13:18;;;;;;;5.90;5.40;;;;;;;12.69;29.45;100571.75;4989499;28;97690;-71
2021/05/09 05:15:50;;;;;;;5.55;5.05;;;;;;;12.70;29.51;100574.41;4998619;28;97678;-71
2021/05/09 05:18:18;;;;;;;5.88;5.40;;;;;;;12.76;29.40;100573.56;4998906;28;97863;-71
2021/05/09 05:20:46;;;;;;;6.45;4.95;;;;;;;12.73;29.52;100574.44;5000748;28;98249;-73
2021/05/09 05:23:14;;;;;;;6.90;5.95;;;;;;;12.71;29.43;100570.84;4997463;28;98759;-73
2021/05/09 05:25:42;;;;;;;6.13;5.53;;;;;;;12.72;29.58;100574.44;4998365;28;97599;-73
2021/05/09 05:28:10;;;;;;;5.45;5.05;;;;;;;12.74;29.67;100572.66;4995586;28;97559;-73
2021/05/09 05:30:37;;;;;;;6.18;5.10;;;;;;;12.81;29.34;100578.09;4998041;28;99202;-71
2021/05/09 05:33:06;;;;;;;14.38;8.45;;;;;;;12.87;29.50;100567.47;4998792;28;97861;-72
2021/05/09 05:35:34;;;;;;;10.88;7.72;;;;;;;;;;4997161;28;97286;-73
2021/05/09 05:38:02;;;;;;;6.53;5.75;;;;;;;12.95;29.46;100576.41;4998963;28;96746;-73
2021/05/09 05:40:29;;;;;;;6.28;5.70;;;;;;;12.99;29.55;100572.00;5000404;28;98140;-73
2021/05/09 05:42:57;;;;;;;5.90;5.18;;;;;;;13.03;29.44;100581.84;5003121;28;98345;-73
2021/05/09 05:45:24;;;;;;;5.43;5.03;;;;;;;13.10;29.47;100581.00;4995077;28;97250;-72
2021/05/09 05:47:51;;;;;;;5.55;5.10;;;;;;;13.13;29.40;100578.34;5002644;28;97873;-74
2021/05/09 05:50:19;;;;;;;5.38;5.00;;;;;;;13.17;29.46;100577.50;5001173;28;97901;-73
2021/05/09 05:52:52;;;;;;;5.88;5.38;;;;;;;13.20;29.30;100574.88;5001565;28;97728;-72
2021/05/09 05:55:20;;;;;;;6.57;5.97;;;;;;;13.29;29.34;100574.03;5003113;28;97708;-72
2021/05/09 05:57:47;;;;;;;5.95;5.45;;;;;;;13.34;29.25;100570.50;5004505;28;97301;-73
2021/05/09 06:00:15;;;;;;;5.63;5.07;;;;;;;13.41;29.25;100576.78;5004176;28;98107;-72
2021/05/09 06:02:43;;;;;;;5.85;5.35;;;;;;;13.48;29.29;100575.91;5002878;28;97759;-72
2021/05/09 06:05:11;;;;;;;7.00;6.20;;;;;;;13.53;29.34;100580.41;5004837;28;97967;-72
2021/05/09 06:07:39;;;;;;;6.85;5.80;;;;;;;13.61;29.43;100572.44;5004763;28;96869;-71
2021/05/09 06:10:07;;;;;;;5.18;4.68;;;;;;;13.70;28.96;100576.06;5006461;28;97854;-72
2021/05/09 06:12:35;;;;;;;5.47;5.05;;;;;;;13.82;29.01;100573.47;5010707;28;97377;-71
2021/05/09 06:15:03;;;;;;;5.65;5.15;;;;;;;13.91;29.14;100575.31;5009948;28;96713;-72
2021/05/09 06:17:30;;;;;;;5.55;4.93;;;;;;;13.99;29.07;100569.09;5010921;28;97183;-72
2021/05/09 06:19:57;;;;;;;5.80;5.35;;;;;;;14.10;28.80;100575.38;5005248;28;98039;-73
2021/05/09 06:22:24;;;;;;;4.80;4.50;;;;;;;14.19;29.06;100560.25;5002713;28;99013;-72
2021/05/09 06:24:53;;;;;;;4.85;4.55;;;;;;;14.27;28.97;100559.38;5003466;28;97641;-71
2021/05/09 06:27:21;;;;;;;5.18;4.78;;;;;;;14.35;28.92;100567.41;5002242;28;97766;-70
2021/05/09 06:29:48;;;;;;;4.85;4.45;;;;;;;14.45;28.89;100559.41;5000343;28;98615;-71
2021/05/09 06:32:15;;;;;;;40.75;21.75;;;;;;;14.53;28.85;100559.44;4996583;28;102509;-71
2021/05/09 06:34:43;;;;;;;22.35;14.52;;;;;;;14.60;28.95;100554.13;4996603;28;97321;-71
2021/05/09 06:37:12;;;;;;;6.90;6.18;;;;;;;14.69;28.86;100553.22;4993662;28;97316;-71
2021/05/09 06:39:40;;;;;;;30.30;20.15;;;;;;;14.78;28.64;100553.22;4990560;28;97188;-71
2021/05/09 06:42:08;;;;;;;17.73;12.40;;;;;;;14.83;28.64;100554.09;4998712;28;97739;-72
2021/05/09 06:44:39;;;;;;;10.25;8.68;;;;;;;14.94;28.62;100550.53;4998476;28;97858;-72
2021/05/09 06:47:07;;;;;;;8.23;7.25;;;;;;;15.02;28.75;100545.19;4995222;28;97568;-73
2021/05/09 06:49:34;;;;;;;34.40;21.80;;;;;;;15.09;28.66;100544.28;4996346;28;101683;-73
2021/05/09 06:52:01;;;;;;;34.10;18.90;;;;;;;15.20;28.62;100546.94;5000261;28;99054;-73
2021/05/09 06:54:30;;;;;;;28.17;15.85;;;;;;;15.27;28.63;100544.25;4996702;28;97005;-73
2021/05/09 06:56:58;;;;;;;39.40;21.63;;;;;;;15.36;28.22;100546.03;5001100;28;97112;-74
2021/05/09 06:59:26;;;;;;;9.98;7.25;;;;;;;15.46;28.38;100545.16;5000470;28;99143;-73
2021/05/09 07:01:54;;;;;;;5.00;4.60;;;;;;;15.54;28.39;100541.53;5000988;28;99023;-73
2021/05/09 07:04:21;;;;;;;5.30;4.38;;;;;;;15.64;28.47;100539.72;4999810;28;97031;-73
2021/05/09 07:06:48;;;;;;;4.88;4.47;;;;;;;15.77;28.37;100544.16;4998818;28;97759;-74
2021/05/09 07:09:15;;;;;;;4.90;4.50;;;;;;;15.82;27.91;100534.28;4998734;28;97958;-74
2021/05/09 07:11:42;;;;;;;4.80;4.32;;;;;;;15.94;27.88;100540.47;5002441;28;100502;-74
2021/05/09 07:14:09;;;;;;;4.60;4.30;;;;;;;15.99;27.88;100533.31;5002796;28;97421;-73
2021/05/09 07:16:37;;;;;;;4.45;4.07;;;;;;;16.10;28.10;100538.66;5001077;28;97204;-74
2021/05/09 07:19:07;;;;;;;4.53;4.05;;;;;;;16.16;27.84;100537.75;5001501;28;99034;-73
2021/05/09 07:21:38;;;;;;;4.18;3.88;;;;;;;16.25;27.68;100535.88;5004092;28;98017;-74
2021/05/09 07:24:07;;;;;;;4.38;4.00;;;;;;;16.34;27.80;100540.31;5002027;28;97336;-73
2021/05/09 07:26:35;;;;;;;4.40;4.00;;;;;;;16.44;27.90;100537.56;5003546;28;96872;-74
2021/05/09 07:29:04;;;;;;;3.70;3.50;;;;;;;16.54;27.63;100547.31;5002343;28;102328;-72
2021/05/09 07:31:32;;;;;;;3.97;3.67;;;;;;;16.60;27.88;100535.63;5003153;28;98122;-72
2021/05/09 07:34:04;;;;;;;3.97;3.58;;;;;;;16.71;27.83;100533.78;5000888;28;97689;-73
2021/05/09 07:36:31;;;;;;;4.22;3.85;;;;;;;16.78;27.78;100525.69;5002258;28;97738;-72
2021/05/09 07:38:58;;;;;;;6.70;5.53;;;;;;;16.93;27.62;100527.34;5003657;28;96687;-72
2021/05/09 07:41:26;;;;;;;3.65;3.45;;;;;;;17.01;27.62;100521.00;5002820;28;98921;-72
2021/05/09 07:43:53;;;;;;;3.55;3.35;;;;;;;17.11;27.41;100519.09;5004190;28;96786;-72
2021/05/09 07:46:20;;;;;;;3.15;2.95;;;;;;;17.21;27.36;100512.75;4999190;28;96864;-72
2021/05/09 07:48:47;;;;;;;2.88;2.67;;;;;;;17.27;27.15;100507.31;5004036;28;97840;-72
2021/05/09 07:51:15;;;;;;;3.40;3.03;;;;;;;17.33;27.37;100520.66;5005698;28;96994;-73
2021/05/09 07:53:43;;;;;;;6.55;5.40;;;;;;;17.43;27.30;100517.03;5004523;28;97270;-73
2021/05/09 07:56:10;;;;;;;8.00;6.55;;;;;;;17.53;27.23;100512.44;4998482;28;97165;-72
2021/05/09 07:58:37;;;;;;;9.30;5.25;;;;;;;17.59;27.12;100515.03;5005255;28;98068;-72
2021/05/09 08:01:05;;;;;;;3.28;3.03;;;;;;;17.66;27.33;100516.72;5007003;28;101597;-74
2021/05/09 08:03:32;;;;;;;4.50;4.10;;;;;;;17.71;27.03;100514.91;5006528;28;97194;-72
2021/05/09 08:05:59;;;;;;;7.63;4.57;;;;;;;17.82;27.12;100511.16;5006496;28;96711;-72
2021/05/09 08:08:29;;;;;;;3.10;2.90;;;;;;;17.89;26.94;100510.16;5006880;28;97816;-74
2021/05/09 08:10:59;;;;;;;3.38;3.15;;;;;;;17.96;26.96;100506.50;5004066;28;98493;-73
2021/05/09 08:13:27;;;;;;;3.20;3.00;;;;;;;18.07;26.89;100506.38;5005955;28;97668;-73
2021/05/09 08:15:55;;;;;;;2.90;2.70;;;;;;;18.16;26.92;100503.56;5005704;28;97387;-72
2021/05/09 08:18:22;;;;;;;10.73;8.02;;;;;;;18.25;26.80;100506.09;4987834;28;99341;-73
2021/05/09 08:20:50;;;;;;;4.28;3.90;;;;;;;18.33;26.78;100512.25;5000845;28;97823;-73
2021/05/09 08:23:18;;;;;;;2.90;2.70;;;;;;;18.38;26.74;100514.91;5005814;28;96647;-72
2021/05/09 08:25:46;;;;;;;2.55;2.45;;;;;;;18.45;26.48;100516.56;5004972;28;97804;-71
2021/05/09 08:28:14;;;;;;;3.05;2.35;;;;;;;18.51;26.45;100520.09;5003757;28;101582;-71
2021/05/09 08:30:41;;;;;;;2.92;2.53;;;;;;;18.61;26.61;100502.84;5001391;28;97278;-71
2021/05/09 08:33:08;;;;;;;2.75;2.60;;;;;;;18.74;26.26;100506.25;4999566;28;97029;-72
2021/05/09 08:35:36;;;;;;;2.58;2.40;;;;;;;18.86;26.45;100511.47;5001778;28;98076;-72
2021/05/09 08:38:05;;;;;;;2.67;2.50;;;;;;;18.95;26.60;100508.59;5001725;28;97686;-71
2021/05/09 08:40:36;;;;;;;2.47;2.38;;;;;;;19.01;26.43;100493.19;5002483;28;100771;-72
2021/05/09 08:43:04;;;;;;;2.17;2.08;;;;;;;19.14;26.17;100507.34;4995453;28;97278;-70
2021/05/09 08:45:32;;;;;;;2.55;2.20;;;;;;;19.19;26.47;100502.75;5003652;28;96965;-72
2021/05/09 08:47:59;;;;;;;9.23;6.25;;;;;;;19.29;26.03;100496.28;5006977;28;97643;-74
2021/05/09 08:50:27;;;;;;;2.88;2.70;;;;;;;19.40;26.40;100493.38;5006890;28;97814;-73
2021/05/09 08:52:55;;;;;;;3.38;3.08;;;;;;;19.51;26.03;100489.56;5007542;28;97085;-73
2021/05/09 08:55:26;;;;;;;2.35;2.25;;;;;;;19.62;26.02;100483.94;5005408;28;97128;-73
2021/05/09 08:57:54;;;;;;;2.38;2.28;;;;;;;19.76;25.96;100481.84;5002510;28;98017;-75
2021/05/09 09:00:25;;;;;;;2.03;1.95;;;;;;;19.85;26.12;100485.22;4994485;28;98150;-75
2021/05/09 09:02:56;;;;;;;2.25;2.15;;;;;;;19.95;25.76;100473.34;5000891;28;97254;-77
2021/05/09 09:05:35;;;;;;;2.42;2.33;;;;;;;20.09;25.97;100472.13;4994133;28;97037;-75
2021/05/09 09:08:03;;;;;;;2.17;2.13;;;;;;;20.14;26.00;100470.25;4990951;28;97524;-75
2021/05/09 09:10:33;;;;;;;3.33;3.10;;;;;;;20.27;25.91;100464.50;4995255;28;100160;-76
2021/05/09 09:13:01;;;;;;;3.67;3.30;;;;;;;20.33;25.38;100469.75;5002961;28;97345;-74
2021/05/09 09:15:50;;;;;;;2.00;1.88;;;;;;;20.47;25.74;100469.41;5009164;28;97736;-76
2021/05/09 09:18:34;;;;;;;2.13;2.03;;;;;;;20.52;25.18;100467.50;4998774;28;98407;-73
2021/05/09 09:21:25;;;;;;;4.18;3.78;;;;;;;20.62;25.22;100460.97;5005553;28;97865;-73
2021/05/09 09:23:54;;;;;;;3.00;2.80;;;;;;;20.68;25.52;100466.22;4997838;28;97565;-73
2021/05/09 09:26:29;;;;;;;2.17;2.08;;;;;;;20.76;25.47;100465.09;4998082;28;96895;-73
2021/05/09 09:28:57;;;;;;;7.63;6.88;;;;;;;20.85;25.36;100453.13;5001034;28;97908;-72
2021/05/09 09:31:39;;;;;;;5.40;4.40;;;;;;;20.95;25.10;100460.09;4999229;28;97474;-71
2021/05/09 09:34:07;;;;;;;2.38;2.28;;;;;;;20.98;25.20;100455.47;4999974;28;97760;-72
2021/05/09 09:36:35;;;;;;;5.70;5.05;;;;;;;21.01;25.09;100462.66;5000149;28;97669;-72
2021/05/09 09:39:03;;;;;;;3.85;3.55;;;;;;;21.03;24.92;100454.47;5000914;28;99437;-72
2021/05/09 09:41:31;;;;;;;7.00;5.25;;;;;;;21.05;24.99;100458.03;4999533;28;97634;-68
2021/05/09 09:44:07;;;;;;;2.80;2.58;;;;;;;21.08;25.04;100450.72;5001204;28;97773;-68
2021/05/09 09:46:36;;;;;;;2.33;2.17;;;;;;;21.17;25.13;100442.38;4982756;28;96884;-71
2021/05/09 09:49:26;;;;;;;2.15;2.05;;;;;;;21.28;24.94;100445.69;4992808;28;99581;-68
2021/05/09 09:51:55;;;;;;;2.28;2.08;;;;;;;21.33;24.91;100441.00;4998697;28;97764;-70
2021/05/09 09:54:30;;;;;;;2.22;2.10;;;;;;;21.39;24.78;100442.66;4996790;28;97564;-70
2021/05/09 09:56:58;;;;;;;3.05;2.38;;;;;;;21.45;24.88;100437.06;5000438;28;97636;-70
2021/05/09 09:59:25;;;;;;;3.13;2.92;;;;;;;21.49;24.53;100434.22;4999855;28;98011;-70
2021/05/09 10:01:52;;;;;;;2.50;2.40;;;;;;;21.57;24.75;100426.78;4997000;28;96847;-71
2021/05/09 10:04:20;;;;;;;2.55;2.10;;;;;;;21.62;24.50;100430.22;4998912;28;97071;-72
2021/05/09 10:06:49;;;;;;;2.10;2.00;;;;;;;21.69;24.68;100429.13;4999671;28;97894;-72
2021/05/09 10:09:16;;;;;;;2.38;2.17;;;;;;;21.75;24.47;100434.38;5001927;28;99278;-72
2021/05/09 10:11:43;;;;;;;2.10;1.88;;;;;;;21.76;24.53;100424.44;5002397;28;98873;-73
2021/05/09 10:14:10;;;;;;;6.30;4.57;;;;;;;21.81;24.73;100430.59;4995073;28;97751;-73
2021/05/09 10:16:41;;;;;;;2.88;2.63;;;;;;;21.79;24.89;100438.78;4985847;28;98222;-73
2021/05/09 10:19:12;;;;;;;2.30;2.20;;;;;;;21.83;24.55;100442.28;4995448;28;98820;-73
2021/05/09 10:21:42;;;;;;;2.38;2.28;;;;;;;21.85;24.57;100433.16;4998935;28;98208;-73
2021/05/09 10:24:11;;;;;;;1.92;1.88;;;;;;;21.89;24.56;100433.94;4999710;28;97065;-73
2021/05/09 10:26:48;;;;;;;1.85;1.85;;;;;;;21.90;24.24;100436.63;4998830;28;97170;-73
2021/05/09 10:29:57;;;;;;;2.15;1.95;;;;;;;21.92;24.09;100440.19;4990728;28;99281;-73
2021/05/09 10:32:51;;;;;;;2.22;1.83;;;;;;;22.02;23.98;100429.91;5001945;28;101747;-73
2021/05/09 10:35:34;;;;;;;2.65;2.50;;;;;;;22.07;24.43;100424.38;4999039;28;97851;-69
2021/05/09 10:38:06;;;;;;;2.15;2.05;;;;;;;22.10;24.43;100418.84;5003935;28;97196;-70
2021/05/09 10:40:36;;;;;;;3.03;2.22;;;;;;;22.13;24.45;100416.91;5002680;28;99413;-69
2021/05/09 10:43:38;;;;;;;2.60;2.20;;;;;;;22.30;23.98;100413.69;5000980;28;101241;-71
2021/05/09 10:46:10;;;;;;;2.53;2.38;;;;;;;22.30;24.38;100403.75;4998297;28;96858;-70
2021/05/09 10:48:37;;;;;;;2.42;1.95;;;;;;;22.39;24.09;100399.81;4989303;28;98138;-70
2021/05/09 10:51:29;;;;;;;2.55;2.30;;;;;;;22.51;24.17;100394.88;4994474;28;101060;-70
2021/05/09 10:54:12;;;;;;;2.10;2.03;;;;;;;22.52;24.05;100401.19;4999878;28;99791;-71
2021/05/09 10:56:40;;;;;;;2.92;2.70;;;;;;;22.62;24.12;100391.81;4993310;28;96811;-70
2021/05/09 10:59:07;;;;;;;2.90;2.45;;;;;;;22.67;23.97;100382.56;4999184;28;97957;-71
2021/05/09 11:01:36;;;;;;;2.83;2.58;;;;;;;22.71;24.04;100383.34;5000558;28;98247;-69
2021/05/09 11:04:05;;;;;;;2.58;2.38;;;;;;;22.79;23.70;100381.22;4998846;28;99311;-71
2021/05/09 11:06:49;;;;;;;4.43;2.22;;;;;;;22.89;23.99;100371.88;5001366;28;96869;-71
2021/05/09 11:09:20;;;;;;;2.10;2.00;;;;;;;22.98;23.87;100370.66;4993689;28;97190;-70
2021/05/09 11:12:01;;;;;;;2.53;2.33;;;;;;;23.11;23.79;100372.88;4990375;28;97216;-69
2021/05/09 11:14:30;;;;;;;2.10;1.90;;;;;;;23.14;23.61;100377.28;4999536;28;97753;-69
2021/05/09 11:17:02;;;;;;;2.10;1.95;;;;;;;23.21;23.58;100371.56;4995657;28;96990;-72
2021/05/09 11:19:50;;;;;;;2.20;2.00;;;;;;;23.37;23.40;100369.22;4993882;28;97719;-71
2021/05/09 11:22:25;;;;;;;1.70;1.70;;;;;;;23.42;23.31;100381.63;5003297;28;99674;-71
2021/05/09 11:24:57;;;;;;;1.80;1.80;;;;;;;23.43;23.38;100372.56;5004115;28;97756;-70
2021/05/09 11:27:26;;;;;;;1.90;1.80;;;;;;;23.45;23.45;100364.34;5002368;28;96954;-71
2021/05/09 11:29:56;;;;;;;2.00;2.00;;;;;;;23.47;23.70;100359.75;5003098;28;98458;-70
2021/05/09 11:32:24;;;;;;;6.18;1.98;;;;;;;23.47;23.52;100363.34;5004942;28;97883;-70
2021/05/09 11:35:00;;;;;;;2.38;2.17;;;;;;;23.56;23.51;100351.25;5005214;28;99018;-70